createdAt,value
2023-03-13T00:01:14.938Z,1.73
2023-03-13T00:03:41.748Z,1.65
2023-03-13T00:06:08.364Z,2.15
2023-03-13T00:08:35.022Z,1.50
2023-03-13T00:11:05.778Z,1.55
2023-03-13T00:13:32.549Z,1.70
2023-03-13T00:16:03.768Z,1.90
2023-03-13T00:18:30.568Z,1.77
2023-03-13T00:21:01.190Z,1.80
2023-03-13T00:23:28.065Z,1.88
2023-03-13T00:26:02.909Z,1.80
2023-03-13T00:28:32.560Z,1.73
2023-03-13T00:31:03.704Z,1.52
2023-03-13T00:33:32.338Z,2.10
2023-03-13T00:36:00.641Z,1.60
2023-03-13T00:38:28.525Z,1.27
2023-03-13T00:41:08.540Z,1.25
2023-03-13T00:43:35.279Z,1.75
2023-03-13T00:46:02.092Z,1.83
2023-03-13T00:48:28.806Z,1.83
2023-03-13T00:50:55.490Z,1.75
2023-03-13T00:53:22.112Z,1.77
2023-03-13T00:56:08.696Z,1.70
2023-03-13T00:58:36.887Z,1.80
2023-03-13T01:01:16.682Z,2.15
2023-03-13T01:03:44.983Z,1.85
2023-03-13T01:06:14.569Z,1.80
2023-03-13T01:08:41.228Z,1.48
2023-03-13T01:11:16.523Z,1.67
2023-03-13T01:16:20.154Z,1.20
2023-03-13T01:18:51.941Z,1.88
2023-03-13T01:21:21.254Z,1.50
2023-03-13T01:23:48.400Z,1.17
2023-03-13T01:26:15.162Z,1.30
2023-03-13T01:28:41.813Z,2.63
2023-03-13T01:31:16.070Z,2.13
2023-03-13T01:33:42.784Z,1.70
2023-03-13T01:36:09.577Z,1.42
2023-03-13T01:38:36.936Z,1.63
2023-03-13T01:41:03.700Z,1.73
2023-03-13T01:43:31.675Z,1.55
2023-03-13T01:46:07.434Z,1.90
2023-03-13T01:48:43.155Z,1.33
2023-03-13T01:51:16.966Z,1.60
2023-03-13T01:53:44.543Z,1.50
2023-03-13T01:56:15.262Z,1.23
2023-03-13T01:58:41.889Z,2.33
2023-03-13T02:01:08.497Z,1.67
2023-03-13T02:03:35.226Z,2.20
2023-03-13T02:06:01.895Z,1.50
2023-03-13T02:08:34.245Z,1.77
2023-03-13T02:11:12.131Z,1.88
2023-03-13T02:13:38.781Z,1.33
2023-03-13T02:16:06.097Z,1.80
2023-03-13T02:18:32.798Z,1.98
2023-03-13T02:21:05.798Z,2.47
2023-03-13T02:23:42.651Z,2.10
2023-03-13T02:26:09.279Z,1.70
2023-03-13T02:28:36.048Z,1.77
2023-03-13T02:31:02.773Z,2.15
2023-03-13T02:33:31.333Z,2.15
2023-03-13T02:35:58.968Z,2.05
2023-03-13T02:38:27.268Z,2.70
2023-03-13T02:40:53.964Z,2.60
2023-03-13T02:43:27.974Z,2.33
2023-03-13T02:46:23.967Z,2.38
2023-03-13T02:48:52.659Z,5.75
2023-03-13T02:51:42.041Z,5.28
2023-03-13T02:54:14.019Z,1.90
2023-03-13T02:56:43.430Z,2.65
2023-03-13T02:59:10.109Z,2.78
2023-03-13T03:01:36.748Z,2.70
2023-03-13T03:04:03.423Z,1.67
2023-03-13T03:06:30.077Z,2.03
2023-03-13T03:08:56.717Z,2.10
2023-03-13T03:11:23.374Z,2.55
2023-03-13T03:13:50.010Z,3.40
2023-03-13T03:16:18.857Z,4.38
2023-03-13T03:18:45.555Z,3.15
2023-03-13T03:21:12.155Z,3.47
2023-03-13T03:23:38.905Z,3.38
2023-03-13T03:26:05.954Z,2.28
2023-03-13T03:28:32.700Z,2.05
2023-03-13T03:31:07.067Z,1.88
2023-03-13T03:33:33.765Z,1.40
2023-03-13T03:36:05.056Z,1.95
2023-03-13T03:38:31.776Z,1.92
2023-03-13T03:40:58.521Z,1.30
2023-03-13T03:43:25.152Z,1.60
2023-03-13T03:45:51.875Z,1.77
2023-03-13T03:48:18.554Z,2.40
2023-03-13T03:50:45.201Z,2.10
2023-03-13T03:53:12.079Z,1.65
2023-03-13T03:55:38.737Z,2.75
2023-03-13T03:58:05.436Z,2.55
2023-03-13T04:00:32.111Z,2.30
2023-03-13T04:02:58.808Z,3.03
2023-03-13T04:05:25.629Z,2.47
2023-03-13T04:07:52.287Z,1.95
2023-03-13T04:10:18.972Z,3.00
2023-03-13T04:12:45.661Z,4.18
2023-03-13T04:15:12.435Z,3.55
2023-03-13T04:17:39.251Z,2.88
2023-03-13T04:20:07.441Z,2.40
2023-03-13T04:22:34.092Z,3.05
2023-03-13T04:25:00.861Z,2.88
2023-03-13T04:27:27.487Z,3.15
2023-03-13T04:29:54.126Z,19.38
2023-03-13T04:32:20.754Z,19.80
2023-03-13T04:34:47.419Z,8.77
2023-03-13T04:37:14.146Z,3.75
2023-03-13T04:39:40.819Z,3.80
2023-03-13T04:42:07.562Z,4.15
2023-03-13T04:44:34.231Z,5.43
2023-03-13T04:47:00.880Z,5.32
2023-03-13T04:49:27.545Z,7.90
2023-03-13T04:51:54.237Z,9.23
2023-03-13T04:54:20.910Z,8.65
2023-03-13T04:56:47.526Z,8.45
2023-03-13T04:59:14.673Z,8.82
2023-03-13T05:01:41.831Z,6.72
2023-03-13T05:04:08.727Z,8.38
2023-03-13T05:06:35.441Z,9.27
2023-03-13T05:09:02.731Z,9.15
2023-03-13T05:11:29.486Z,12.82
2023-03-13T05:13:56.205Z,13.00
2023-03-13T05:16:22.973Z,11.38
2023-03-13T05:18:49.783Z,11.35
2023-03-13T05:21:16.515Z,10.00
2023-03-13T05:23:43.122Z,9.73
2023-03-13T05:26:09.727Z,8.82
2023-03-13T05:28:36.450Z,10.57
2023-03-13T05:31:03.161Z,11.10
2023-03-13T05:33:29.831Z,12.52
2023-03-13T05:35:56.514Z,13.50
2023-03-13T05:38:23.176Z,12.27
2023-03-13T05:40:49.949Z,10.43
2023-03-13T05:43:16.586Z,9.50
2023-03-13T05:45:43.239Z,12.68
2023-03-13T05:48:11.082Z,10.57
2023-03-13T05:50:37.773Z,13.05
2023-03-13T05:53:04.465Z,12.65
2023-03-13T05:55:31.103Z,12.02
2023-03-13T05:57:57.853Z,9.43
2023-03-13T06:00:24.596Z,8.02
2023-03-13T06:02:51.204Z,8.43
2023-03-13T06:05:17.974Z,8.77
2023-03-13T06:07:44.591Z,10.30
2023-03-13T06:10:11.750Z,10.60
2023-03-13T06:12:38.617Z,7.50
2023-03-13T06:15:07.296Z,7.20
2023-03-13T06:17:33.953Z,3.72
2023-03-13T06:20:00.706Z,5.63
2023-03-13T06:22:27.529Z,2.33
2023-03-13T06:24:54.204Z,2.38
2023-03-13T06:27:20.876Z,2.60
2023-03-13T06:29:47.559Z,1.65
2023-03-13T06:32:14.246Z,1.60
2023-03-13T06:34:40.943Z,2.10
2023-03-13T06:37:07.701Z,2.25
2023-03-13T06:39:34.440Z,3.22
2023-03-13T06:42:01.124Z,2.25
2023-03-13T06:44:27.712Z,1.70
2023-03-13T06:46:54.442Z,2.00
2023-03-13T06:49:21.169Z,1.40
2023-03-13T06:51:47.850Z,1.52
2023-03-13T06:54:14.481Z,1.95
2023-03-13T06:56:41.156Z,1.90
2023-03-13T06:59:07.788Z,1.85
2023-03-13T07:01:34.496Z,2.15
2023-03-13T07:04:01.260Z,2.05
2023-03-13T07:06:27.928Z,1.88
2023-03-13T07:08:54.609Z,1.60
2023-03-13T07:11:21.325Z,2.50
2023-03-13T07:13:48.005Z,1.73
2023-03-13T07:16:14.741Z,3.70
2023-03-13T07:18:47.379Z,1.65
2023-03-13T07:21:14.127Z,1.73
2023-03-13T07:23:40.758Z,1.92
2023-03-13T07:26:12.298Z,2.13
2023-03-13T07:28:39.008Z,1.05
2023-03-13T07:31:12.797Z,1.90
2023-03-13T07:33:39.606Z,2.63
2023-03-13T07:36:06.523Z,2.63
2023-03-13T07:38:33.452Z,1.65
2023-03-13T07:41:00.193Z,1.83
2023-03-13T07:43:26.974Z,2.42
2023-03-13T07:45:55.672Z,1.77
2023-03-13T07:48:22.936Z,2.33
2023-03-13T07:50:49.656Z,1.63
2023-03-13T07:53:21.296Z,2.55
2023-03-13T07:56:03.170Z,1.73
2023-03-13T07:58:31.366Z,1.83
2023-03-13T08:00:58.039Z,2.78
2023-03-13T08:03:24.905Z,1.75
2023-03-13T08:06:01.522Z,2.22
2023-03-13T08:08:28.419Z,2.05
2023-03-13T08:11:03.031Z,1.48
2023-03-13T08:16:15.464Z,2.63
2023-03-13T08:18:43.426Z,2.08
2023-03-13T08:21:11.769Z,3.03
2023-03-13T08:23:38.554Z,2.20
2023-03-13T08:26:06.763Z,2.00
2023-03-13T08:28:33.422Z,1.83
2023-03-13T08:31:04.155Z,1.50
2023-03-13T08:33:30.834Z,1.42
2023-03-13T08:35:57.529Z,1.60
2023-03-13T08:38:24.222Z,2.00
2023-03-13T08:40:57.240Z,1.70
2023-03-13T08:43:23.866Z,1.60
2023-03-13T08:45:55.985Z,1.67
2023-03-13T08:48:22.901Z,1.85
2023-03-13T08:51:01.842Z,1.98
2023-03-13T08:53:28.786Z,1.60
2023-03-13T08:55:55.546Z,2.17
2023-03-13T08:58:22.186Z,1.73
2023-03-13T09:00:48.821Z,2.15
2023-03-13T09:03:15.518Z,1.63
2023-03-13T09:05:55.262Z,1.95
2023-03-13T09:08:22.789Z,1.40
2023-03-13T09:10:54.604Z,1.52
2023-03-13T09:13:21.244Z,1.40
2023-03-13T09:15:57.550Z,1.38
2023-03-13T09:18:24.670Z,1.55
2023-03-13T09:20:51.409Z,1.45
2023-03-13T09:23:18.164Z,1.25
2023-03-13T09:25:44.828Z,1.33
2023-03-13T09:28:11.599Z,1.42
2023-03-13T09:30:38.244Z,1.50
2023-03-13T09:33:04.896Z,1.55
2023-03-13T09:35:31.621Z,1.38
2023-03-13T09:37:58.785Z,1.73
2023-03-13T09:40:25.553Z,1.40
2023-03-13T09:42:54.019Z,1.33
2023-03-13T09:45:36.516Z,1.48
2023-03-13T09:48:05.607Z,1.50
2023-03-13T09:50:42.362Z,0.93
2023-03-13T09:53:16.802Z,1.42
2023-03-13T09:55:43.460Z,1.27
2023-03-13T09:58:16.618Z,1.58
2023-03-13T10:00:52.728Z,1.08
2023-03-13T10:03:57.027Z,1.60
2023-03-13T10:06:24.778Z,1.05
2023-03-13T10:08:52.902Z,1.20
2023-03-13T10:12:00.811Z,1.65
2023-03-13T10:14:31.033Z,1.38
2023-03-13T10:17:27.255Z,1.33
2023-03-13T10:20:00.687Z,1.30
2023-03-13T10:22:30.148Z,1.27
2023-03-13T10:25:00.665Z,1.42
2023-03-13T10:27:27.298Z,1.27
2023-03-13T10:29:54.057Z,1.05
2023-03-13T10:32:21.240Z,1.13
2023-03-13T10:34:53.968Z,1.40
2023-03-13T10:37:28.075Z,0.98
2023-03-13T10:39:54.906Z,0.85
2023-03-13T10:42:33.567Z,1.30
2023-03-13T10:45:01.360Z,1.23
2023-03-13T10:47:28.230Z,1.23
2023-03-13T10:49:58.169Z,0.90
2023-03-13T10:52:44.388Z,1.00
2023-03-13T10:55:18.458Z,1.02
2023-03-13T10:58:01.043Z,0.98
2023-03-13T11:00:33.451Z,1.17
2023-03-13T11:03:00.266Z,1.10
2023-03-13T11:05:30.994Z,0.95
2023-03-13T11:07:57.682Z,0.95
2023-03-13T11:10:29.896Z,1.10
2023-03-13T11:12:57.772Z,1.10
2023-03-13T11:15:29.664Z,1.10
2023-03-13T11:18:24.365Z,1.58
2023-03-13T11:20:51.025Z,1.42
2023-03-13T11:23:30.501Z,1.10
2023-03-13T11:26:15.337Z,1.20
2023-03-13T11:29:09.628Z,1.10
2023-03-13T11:31:39.373Z,0.85
2023-03-13T11:34:54.396Z,1.48
2023-03-13T11:37:21.050Z,0.90
2023-03-13T11:40:11.697Z,1.75
2023-03-13T11:43:25.014Z,0.98
2023-03-13T11:46:04.380Z,1.35
2023-03-13T11:49:14.754Z,0.90
2023-03-13T11:51:49.614Z,1.08
2023-03-13T11:54:36.735Z,1.08
2023-03-13T11:57:18.840Z,1.00
2023-03-13T11:59:54.157Z,1.00
2023-03-13T12:02:30.662Z,1.00
2023-03-13T12:05:02.295Z,1.02
2023-03-13T12:07:30.891Z,1.17
2023-03-13T12:12:38.889Z,1.00
2023-03-13T12:15:16.172Z,1.00
2023-03-13T12:17:49.302Z,1.15
2023-03-13T12:20:39.709Z,0.80
2023-03-13T12:23:17.189Z,0.85
2023-03-13T12:25:56.255Z,0.90
2023-03-13T12:28:41.823Z,1.02
2023-03-13T12:31:28.277Z,1.13
2023-03-13T12:34:15.590Z,0.98
2023-03-13T12:36:54.355Z,1.13
2023-03-13T12:39:22.833Z,0.80
2023-03-13T12:42:19.873Z,0.98
2023-03-13T12:44:46.688Z,0.75
2023-03-13T12:47:23.532Z,0.90
2023-03-13T12:50:26.867Z,0.88
2023-03-13T12:53:14.893Z,0.90
2023-03-13T12:56:05.979Z,1.05
2023-03-13T12:58:59.159Z,1.40
2023-03-13T13:04:17.763Z,1.23
2023-03-13T13:06:50.432Z,1.25
2023-03-13T13:09:27.995Z,1.00
2023-03-13T13:12:20.078Z,1.00
2023-03-13T13:14:49.681Z,0.90
2023-03-13T13:17:28.457Z,0.70
2023-03-13T13:19:56.362Z,1.13
2023-03-13T13:22:38.449Z,1.00
2023-03-13T13:25:11.133Z,1.30
2023-03-13T13:27:37.684Z,1.10
2023-03-13T13:30:19.570Z,1.38
2023-03-13T13:32:46.278Z,0.93
2023-03-13T13:35:12.830Z,1.30
2023-03-13T13:37:40.227Z,1.02
2023-03-13T13:40:16.183Z,1.48
2023-03-13T13:42:49.932Z,1.08
2023-03-13T13:45:16.549Z,1.00
2023-03-13T13:47:50.052Z,1.30
2023-03-13T13:50:34.899Z,1.15
2023-03-13T13:53:31.041Z,0.98
2023-03-13T13:55:58.763Z,1.63
2023-03-13T13:58:27.827Z,1.20
2023-03-13T14:00:58.504Z,0.82
2023-03-13T14:03:29.706Z,1.10
2023-03-13T14:06:00.874Z,1.08
2023-03-13T14:08:36.756Z,1.40
2023-03-13T14:11:21.897Z,1.00
2023-03-13T14:14:17.274Z,1.20
2023-03-13T14:16:54.234Z,1.75
2023-03-13T14:19:39.353Z,1.60
2023-03-13T14:22:07.989Z,0.73
2023-03-13T14:24:34.966Z,1.17
2023-03-13T14:27:01.759Z,1.10
2023-03-13T14:29:28.429Z,1.70
2023-03-13T14:31:56.536Z,1.70
2023-03-13T14:34:23.271Z,2.35
2023-03-13T14:36:57.136Z,1.33
2023-03-13T14:39:31.126Z,1.63
2023-03-13T14:42:06.017Z,1.67
2023-03-13T14:44:36.530Z,1.90
2023-03-13T14:47:26.006Z,1.35
2023-03-13T14:50:00.559Z,1.88
2023-03-13T14:52:28.051Z,1.90
2023-03-13T14:55:05.023Z,1.95
2023-03-13T14:57:31.798Z,1.00
2023-03-13T15:00:32.588Z,2.80
2023-03-13T15:03:24.542Z,2.80
2023-03-13T15:06:23.748Z,3.17
2023-03-13T15:09:19.782Z,4.13
2023-03-13T15:11:57.694Z,4.45
2023-03-13T15:14:41.248Z,15.45
2023-03-13T15:17:26.852Z,4.88
2023-03-13T15:19:55.087Z,6.75
2023-03-13T15:22:41.084Z,4.47
2023-03-13T15:25:18.895Z,3.63
2023-03-13T15:27:45.725Z,4.35
2023-03-13T15:30:19.915Z,2.92
2023-03-13T15:32:47.142Z,3.55
2023-03-13T15:35:27.271Z,3.25
2023-03-13T15:37:54.454Z,2.88
2023-03-13T15:40:21.587Z,2.63
2023-03-13T15:42:48.272Z,2.47
2023-03-13T15:45:14.915Z,3.20
2023-03-13T15:47:41.614Z,3.35
2023-03-13T15:50:16.207Z,2.72
2023-03-13T15:52:42.864Z,2.30
2023-03-13T15:55:12.840Z,2.15
2023-03-13T15:57:42.700Z,2.70
2023-03-13T16:00:20.260Z,5.90
2023-03-13T16:02:46.892Z,8.70
2023-03-13T16:05:13.587Z,10.70
2023-03-13T16:07:40.246Z,11.82
2023-03-13T16:10:22.604Z,10.95
2023-03-13T16:12:51.228Z,8.77
2023-03-13T16:15:17.922Z,15.40
2023-03-13T16:17:44.632Z,14.63
2023-03-13T16:20:16.481Z,17.85
2023-03-13T16:22:43.293Z,14.98
2023-03-13T16:25:10.108Z,13.48
2023-03-13T16:27:36.824Z,12.05
2023-03-13T16:30:04.405Z,13.57
2023-03-13T16:32:31.166Z,20.20
2023-03-13T16:34:59.550Z,16.95
2023-03-13T16:37:26.305Z,15.75
2023-03-13T16:39:52.994Z,13.65
2023-03-13T16:42:19.701Z,13.15
2023-03-13T16:44:46.362Z,11.43
2023-03-13T16:47:28.171Z,15.00
2023-03-13T16:49:55.242Z,19.17
2023-03-13T16:52:21.893Z,14.40
2023-03-13T16:54:48.516Z,17.52
2023-03-13T16:57:19.937Z,14.05
2023-03-13T16:59:46.642Z,15.88
2023-03-13T17:02:17.872Z,19.63
2023-03-13T17:04:45.527Z,16.75
2023-03-13T17:07:20.558Z,15.25
2023-03-13T17:09:47.303Z,16.95
2023-03-13T17:12:13.933Z,18.83
2023-03-13T17:14:40.633Z,21.92
2023-03-13T17:17:16.899Z,22.10
2023-03-13T17:19:44.065Z,19.38
2023-03-13T17:22:13.930Z,25.25
2023-03-13T17:24:40.722Z,15.98
2023-03-13T17:27:14.010Z,46.60
2023-03-13T17:29:41.047Z,10.93
2023-03-13T17:32:11.926Z,26.30
2023-03-13T17:34:39.298Z,55.38
2023-03-13T17:37:15.145Z,25.00
2023-03-13T17:39:43.389Z,34.45
2023-03-13T17:42:10.027Z,12.95
2023-03-13T17:44:39.137Z,8.63
2023-03-13T17:47:21.757Z,7.13
2023-03-13T17:49:48.420Z,13.30
2023-03-13T17:52:16.590Z,17.20
2023-03-13T17:54:43.767Z,12.90
2023-03-13T17:57:18.761Z,13.00
2023-03-13T17:59:46.168Z,10.25
2023-03-13T18:02:13.686Z,14.23
2023-03-13T18:04:40.802Z,7.97
2023-03-13T18:07:27.002Z,10.60
2023-03-13T18:09:53.625Z,13.38
2023-03-13T18:12:20.430Z,9.75
2023-03-13T18:14:47.085Z,13.25
2023-03-13T18:17:18.439Z,11.82
2023-03-13T18:19:45.401Z,15.65
2023-03-13T18:22:16.339Z,11.13
2023-03-13T18:24:43.045Z,17.30
2023-03-13T18:27:13.935Z,13.35
2023-03-13T18:29:40.585Z,14.38
2023-03-13T18:32:07.352Z,22.83
2023-03-13T18:34:35.149Z,25.42
2023-03-13T18:37:04.839Z,11.02
2023-03-13T18:39:32.107Z,7.93
2023-03-13T18:41:59.573Z,14.00
2023-03-13T18:44:26.428Z,13.25
2023-03-13T18:46:53.478Z,11.25
2023-03-13T18:49:21.708Z,11.73
2023-03-13T18:51:48.962Z,32.50
2023-03-13T18:54:16.181Z,22.38
2023-03-13T18:56:43.940Z,21.30
2023-03-13T18:59:16.025Z,14.75
2023-03-13T19:01:42.895Z,14.27
2023-03-13T19:04:09.521Z,15.98
2023-03-13T19:06:36.446Z,15.82
2023-03-13T19:09:37.707Z,15.32
2023-03-13T19:11:58.233Z,14.27
2023-03-13T19:14:24.892Z,17.27
2023-03-13T19:16:53.210Z,29.27
2023-03-13T19:19:21.315Z,17.15
2023-03-13T19:21:48.345Z,13.95
2023-03-13T19:24:15.015Z,13.27
2023-03-13T19:26:42.989Z,13.73
2023-03-13T19:29:20.371Z,11.95
2023-03-13T19:31:47.239Z,12.25
2023-03-13T19:34:14.149Z,14.05
2023-03-13T19:36:42.120Z,14.15
2023-03-13T19:39:15.729Z,11.40
2023-03-13T19:41:42.528Z,13.32
2023-03-13T19:44:09.128Z,14.05
2023-03-13T19:46:37.704Z,8.57
2023-03-13T19:49:04.350Z,10.85
2023-03-13T19:51:31.114Z,12.00
2023-03-13T19:53:57.837Z,12.27
2023-03-13T19:56:26.118Z,11.43
2023-03-13T19:58:57.315Z,11.13
2023-03-13T20:01:24.022Z,10.05
2023-03-13T20:03:50.640Z,9.23
2023-03-13T20:06:21.633Z,9.77
2023-03-13T20:08:48.292Z,12.60
2023-03-13T20:11:15.454Z,18.48
2023-03-13T20:13:42.460Z,13.02
2023-03-13T20:16:10.912Z,11.48
2023-03-13T20:18:40.692Z,12.20
2023-03-13T20:21:07.567Z,10.35
2023-03-13T20:23:34.201Z,11.30
2023-03-13T20:26:08.363Z,12.07
2023-03-13T20:28:35.973Z,12.43
2023-03-13T20:31:02.802Z,8.55
2023-03-13T20:33:29.591Z,8.52
2023-03-13T20:35:57.686Z,10.23
2023-03-13T20:38:24.351Z,10.18
2023-03-13T20:40:55.198Z,9.90
2023-03-13T20:43:21.876Z,9.93
2023-03-13T20:45:48.596Z,9.25
2023-03-13T20:48:15.645Z,9.77
2023-03-13T20:50:42.496Z,7.07
2023-03-13T20:53:09.318Z,8.43
2023-03-13T20:55:38.996Z,9.88
2023-03-13T20:58:05.674Z,9.55
2023-03-13T21:00:32.673Z,9.32
2023-03-13T21:02:59.691Z,9.68
2023-03-13T21:05:26.470Z,12.93
2023-03-13T21:07:53.169Z,22.92
2023-03-13T21:10:19.864Z,10.63
2023-03-13T21:12:46.512Z,7.82
2023-03-13T21:15:13.189Z,6.75
2023-03-13T21:17:39.770Z,9.93
2023-03-13T21:20:14.184Z,9.32
2023-03-13T21:22:41.365Z,7.50
2023-03-13T21:25:11.302Z,8.73
2023-03-13T21:27:38.198Z,6.97
2023-03-13T21:30:06.042Z,7.05
2023-03-13T21:32:32.830Z,6.35
2023-03-13T21:34:59.550Z,5.95
2023-03-13T21:37:26.227Z,5.50
2023-03-13T21:39:53.111Z,6.03
2023-03-13T21:42:20.298Z,5.90
2023-03-13T21:44:48.335Z,11.82
2023-03-13T21:47:24.253Z,9.98
2023-03-13T21:49:51.870Z,11.55
2023-03-13T21:52:18.775Z,11.13
2023-03-13T21:54:45.564Z,9.13
2023-03-13T21:57:12.375Z,6.32
2023-03-13T21:59:39.021Z,7.10
2023-03-13T22:02:05.662Z,8.30
2023-03-13T22:04:32.408Z,9.02
2023-03-13T22:06:59.135Z,10.68
2023-03-13T22:09:25.818Z,10.68
2023-03-13T22:11:52.527Z,10.93
2023-03-13T22:14:21.546Z,11.20
2023-03-13T22:16:49.973Z,11.38
2023-03-13T22:19:17.604Z,10.57
2023-03-13T22:21:44.669Z,10.35
2023-03-13T22:24:11.583Z,11.32
2023-03-13T22:26:38.487Z,14.85
2023-03-13T22:29:05.214Z,12.13
2023-03-13T22:31:31.892Z,11.05
2023-03-13T22:33:58.558Z,11.00
2023-03-13T22:36:25.359Z,10.77
2023-03-13T22:38:52.153Z,11.30
2023-03-13T22:41:18.971Z,11.80
2023-03-13T22:43:45.562Z,11.13
2023-03-13T22:46:12.230Z,9.75
2023-03-13T22:48:39.012Z,6.40
2023-03-13T22:51:09.985Z,5.40
2023-03-13T22:53:37.519Z,7.20
2023-03-13T22:56:04.506Z,5.82
2023-03-13T22:58:31.171Z,7.07
2023-03-13T23:00:57.836Z,6.28
2023-03-13T23:03:24.625Z,5.20
2023-03-13T23:05:51.240Z,6.05
2023-03-13T23:08:18.012Z,4.63
2023-03-13T23:10:47.217Z,4.43
2023-03-13T23:15:55.277Z,4.22
2023-03-13T23:18:23.663Z,3.83
2023-03-13T23:20:50.368Z,3.25
2023-03-13T23:23:17.054Z,3.95
2023-03-13T23:25:43.703Z,3.00
2023-03-13T23:28:10.344Z,3.80
2023-03-13T23:30:37.101Z,4.25
2023-03-13T23:33:03.833Z,6.00
2023-03-13T23:35:30.467Z,6.00
2023-03-13T23:37:57.118Z,8.18
2023-03-13T23:40:24.016Z,8.20
2023-03-13T23:42:50.655Z,8.18
2023-03-13T23:45:17.764Z,6.95
2023-03-13T23:47:44.777Z,6.28
2023-03-13T23:50:15.286Z,6.10
2023-03-13T23:52:42.136Z,5.78
2023-03-13T23:55:09.402Z,5.07
2023-03-13T23:57:38.884Z,4.55
